createdAt,value
2018-01-17T00:01:41.226Z,0.00
2018-01-17T00:02:48.265Z,0.00
2018-01-17T00:03:51.332Z,0.00
2018-01-17T00:06:31.811Z,0.00
2018-01-17T00:07:38.890Z,0.00
2018-01-17T00:08:38.874Z,0.00
2018-01-17T00:11:21.037Z,0.00
2018-01-17T00:14:14.939Z,0.00
2018-01-17T00:15:23.046Z,0.00
2018-01-17T00:18:05.034Z,0.00
2018-01-17T00:20:55.161Z,0.00
2018-01-17T00:21:54.964Z,0.00
2018-01-17T00:22:54.863Z,0.00
2018-01-17T00:23:54.775Z,0.00
2018-01-17T00:24:54.692Z,0.00
2018-01-17T00:25:54.733Z,0.00
2018-01-17T00:28:19.046Z,0.00
2018-01-17T00:29:18.945Z,0.00
2018-01-17T00:30:18.873Z,0.00
2018-01-17T00:34:52.937Z,0.00
2018-01-17T00:35:52.875Z,0.00
2018-01-17T00:36:52.789Z,0.00
2018-01-17T00:37:52.712Z,0.00
2018-01-17T00:38:52.621Z,0.00
2018-01-17T00:39:52.582Z,0.00
2018-01-17T00:40:52.476Z,0.00
2018-01-17T00:41:52.396Z,0.00
2018-01-17T00:42:52.326Z,0.00
2018-01-17T00:43:52.200Z,0.00
2018-01-17T00:44:52.139Z,0.00
2018-01-17T00:45:52.059Z,0.00
2018-01-17T00:46:51.958Z,0.00
2018-01-17T00:47:51.903Z,0.00
2018-01-17T00:48:51.789Z,0.00
2018-01-17T00:49:51.746Z,0.00
2018-01-17T00:50:51.761Z,0.00
2018-01-17T00:51:51.568Z,0.00
2018-01-17T00:52:51.467Z,0.00
2018-01-17T00:53:51.391Z,0.00
2018-01-17T00:54:51.311Z,0.00
2018-01-17T00:55:51.223Z,0.00
2018-01-17T00:56:51.213Z,0.00
2018-01-17T00:57:51.088Z,0.00
2018-01-17T00:58:51.035Z,0.00
2018-01-17T00:59:50.908Z,0.00
2018-01-17T01:00:50.812Z,0.00
2018-01-17T01:01:50.747Z,0.00
2018-01-17T01:02:50.668Z,0.00
2018-01-17T01:03:50.598Z,0.00
2018-01-17T01:04:50.540Z,0.00
2018-01-17T01:05:50.414Z,0.00
2018-01-17T01:06:50.350Z,0.00
2018-01-17T01:07:50.263Z,0.00
2018-01-17T01:08:50.164Z,0.00
2018-01-17T01:09:50.079Z,0.00
2018-01-17T01:10:50.008Z,0.00
2018-01-17T01:11:49.933Z,0.00
2018-01-17T01:12:49.861Z,0.00
2018-01-17T01:13:50.149Z,0.00
2018-01-17T01:14:49.675Z,0.00
2018-01-17T01:15:49.605Z,0.00
2018-01-17T01:16:49.504Z,0.00
2018-01-17T01:17:49.430Z,0.00
2018-01-17T01:18:49.362Z,0.00
2018-01-17T01:19:49.275Z,0.00
2018-01-17T01:20:49.253Z,0.00
2018-01-17T01:21:49.109Z,0.00
2018-01-17T01:22:49.021Z,0.00
2018-01-17T01:23:48.970Z,0.00
2018-01-17T01:24:48.869Z,0.00
2018-01-17T01:25:48.783Z,0.00
2018-01-17T01:26:48.711Z,0.00
2018-01-17T01:27:48.651Z,0.00
2018-01-17T01:28:48.568Z,0.00
2018-01-17T01:29:48.487Z,0.00
2018-01-17T01:30:48.417Z,0.00
2018-01-17T01:31:48.292Z,0.00
2018-01-17T01:32:51.127Z,0.00
2018-01-17T01:33:48.156Z,0.00
2018-01-17T01:34:48.144Z,0.00
2018-01-17T01:35:47.951Z,0.00
2018-01-17T01:36:56.689Z,0.00
2018-01-17T01:40:00.724Z,0.00
2018-01-17T01:41:10.217Z,0.00
2018-01-17T01:43:53.683Z,0.00
2018-01-17T01:46:43.211Z,0.00
2018-01-17T01:47:51.892Z,0.00
2018-01-17T01:48:51.908Z,0.00
2018-01-17T01:49:53.061Z,0.00
2018-01-17T01:52:33.898Z,0.00
2018-01-17T01:53:33.780Z,0.00
2018-01-17T01:54:33.736Z,0.00
2018-01-17T01:55:33.642Z,0.00
2018-01-17T01:56:33.538Z,0.00
2018-01-17T01:57:33.450Z,0.00
2018-01-17T01:58:33.370Z,0.00
2018-01-17T01:59:33.287Z,0.00
2018-01-17T02:00:33.208Z,0.00
2018-01-17T02:01:33.144Z,0.00
2018-01-17T02:02:33.055Z,0.00
2018-01-17T02:03:32.965Z,0.00
2018-01-17T02:04:32.875Z,0.00
2018-01-17T02:05:32.811Z,0.00
2018-01-17T02:06:32.814Z,0.00
2018-01-17T02:07:32.632Z,0.00
2018-01-17T02:08:32.555Z,0.00
2018-01-17T02:09:32.490Z,0.00
2018-01-17T02:12:14.406Z,0.00
2018-01-17T02:13:14.281Z,0.00
2018-01-17T02:14:14.218Z,0.00
2018-01-17T02:15:14.124Z,0.00
2018-01-17T02:16:14.049Z,0.00
2018-01-17T02:17:13.985Z,0.00
2018-01-17T02:19:38.364Z,0.00
2018-01-17T02:20:38.308Z,0.00
2018-01-17T02:21:38.226Z,0.00
2018-01-17T02:22:38.133Z,0.00
2018-01-17T02:23:40.027Z,0.00
2018-01-17T02:24:37.985Z,0.00
2018-01-17T02:25:37.871Z,0.00
2018-01-17T02:28:02.386Z,0.00
2018-01-17T02:29:02.282Z,0.00
2018-01-17T02:30:02.218Z,0.00
2018-01-17T02:31:02.123Z,0.00
2018-01-17T02:32:02.056Z,0.00
2018-01-17T02:33:01.983Z,0.00
2018-01-17T02:35:43.868Z,0.00
2018-01-17T02:36:43.790Z,0.00
2018-01-17T02:37:43.727Z,0.00
2018-01-17T02:38:43.656Z,0.00
2018-01-17T02:41:25.876Z,0.00
2018-01-17T02:42:25.780Z,0.00
2018-01-17T02:43:25.719Z,0.00
2018-01-17T02:44:25.624Z,0.00
2018-01-17T02:45:25.551Z,0.00
2018-01-17T02:46:25.454Z,0.00
2018-01-17T02:47:25.377Z,0.00
2018-01-17T02:48:25.321Z,0.00
2018-01-17T02:49:25.270Z,0.00
2018-01-17T02:50:25.135Z,0.00
2018-01-17T02:51:25.054Z,0.00
2018-01-17T02:52:24.970Z,0.00
2018-01-17T02:53:24.935Z,0.00
2018-01-17T02:54:24.802Z,0.00
2018-01-17T02:55:24.711Z,0.00
2018-01-17T02:56:24.649Z,0.00
2018-01-17T02:57:24.567Z,0.00
2018-01-17T02:58:24.500Z,0.00
2018-01-17T02:59:24.389Z,0.00
2018-01-17T03:00:24.308Z,0.00
2018-01-17T03:01:24.241Z,0.00
2018-01-17T03:02:24.143Z,0.00
2018-01-17T03:03:24.082Z,0.00
2018-01-17T03:04:23.977Z,0.00
2018-01-17T03:05:23.918Z,0.00
2018-01-17T03:06:23.823Z,0.00
2018-01-17T03:07:23.732Z,0.00
2018-01-17T03:08:23.698Z,0.00
2018-01-17T03:09:23.603Z,0.00
2018-01-17T03:10:23.500Z,0.00
2018-01-17T03:11:23.404Z,0.00
2018-01-17T03:12:23.314Z,0.00
2018-01-17T03:13:23.236Z,0.00
2018-01-17T03:14:23.193Z,0.00
2018-01-17T03:17:05.374Z,0.00
2018-01-17T03:18:05.298Z,0.00
2018-01-17T03:19:05.515Z,0.00
2018-01-17T03:20:05.145Z,0.00
2018-01-17T03:21:05.047Z,0.00
2018-01-17T03:22:04.964Z,0.00
2018-01-17T03:23:04.881Z,0.00
2018-01-17T03:24:04.882Z,0.00
2018-01-17T03:25:04.727Z,0.00
2018-01-17T03:26:04.631Z,0.00
2018-01-17T03:27:04.564Z,0.00
2018-01-17T03:28:04.477Z,0.00
2018-01-17T03:29:04.392Z,0.00
2018-01-17T03:30:04.303Z,0.00
2018-01-17T03:31:04.261Z,0.00
2018-01-17T03:32:04.161Z,0.00
2018-01-17T03:34:50.832Z,0.00
2018-01-17T03:35:46.290Z,0.00
2018-01-17T03:36:46.232Z,0.00
2018-01-17T03:37:46.120Z,0.00
2018-01-17T03:38:46.042Z,0.00
2018-01-17T03:39:45.983Z,0.00
2018-01-17T03:40:45.905Z,0.00
2018-01-17T03:41:45.803Z,0.00
2018-01-17T03:42:45.710Z,0.00
2018-01-17T03:43:45.644Z,0.00
2018-01-17T03:44:45.543Z,0.00
2018-01-17T03:45:45.478Z,0.00
2018-01-17T03:46:45.415Z,0.00
2018-01-17T03:47:45.328Z,0.00
2018-01-17T03:48:45.227Z,0.00
2018-01-17T03:52:51.890Z,0.00
2018-01-17T03:53:51.802Z,0.00
2018-01-17T03:54:51.701Z,0.00
2018-01-17T03:55:51.640Z,0.00
2018-01-17T03:56:51.565Z,0.00
2018-01-17T03:57:51.484Z,0.00
2018-01-17T03:58:51.380Z,0.00
2018-01-17T03:59:51.303Z,0.00
2018-01-17T04:00:51.219Z,0.00
2018-01-17T04:01:51.140Z,0.00
2018-01-17T04:02:51.064Z,0.00
2018-01-17T04:03:50.971Z,0.00
2018-01-17T04:04:51.000Z,0.00
2018-01-17T04:05:50.828Z,0.00
2018-01-17T04:06:50.723Z,0.00
2018-01-17T04:07:50.683Z,0.00
2018-01-17T04:08:50.566Z,0.00
2018-01-17T04:09:50.479Z,0.00
2018-01-17T04:10:52.388Z,0.00
2018-01-17T04:11:50.307Z,0.00
2018-01-17T04:12:50.249Z,0.00
2018-01-17T04:13:50.167Z,0.00
2018-01-17T04:14:50.063Z,0.00
2018-01-17T04:15:49.979Z,0.00
2018-01-17T04:16:49.899Z,0.00
2018-01-17T04:17:49.819Z,0.00
2018-01-17T04:18:49.750Z,0.00
2018-01-17T04:19:49.657Z,0.00
2018-01-17T04:20:49.572Z,0.00
2018-01-17T04:21:49.486Z,0.00
2018-01-17T04:22:49.416Z,0.00
2018-01-17T04:23:49.335Z,0.00
2018-01-17T04:24:49.236Z,0.00
2018-01-17T04:25:49.165Z,0.00
2018-01-17T04:28:31.401Z,0.00
2018-01-17T04:29:31.296Z,0.00
2018-01-17T04:30:31.207Z,0.00
2018-01-17T04:31:31.136Z,0.00
2018-01-17T04:32:31.050Z,0.00
2018-01-17T04:33:30.967Z,0.00
2018-01-17T04:34:30.903Z,0.00
2018-01-17T04:35:30.813Z,0.00
2018-01-17T04:36:30.732Z,0.00
2018-01-17T04:37:30.648Z,0.00
2018-01-17T04:38:30.552Z,0.00
2018-01-17T04:39:30.471Z,0.00
2018-01-17T04:40:30.442Z,0.00
2018-01-17T04:41:30.304Z,0.00
2018-01-17T04:42:30.232Z,0.00
2018-01-17T04:43:30.160Z,0.00
2018-01-17T04:44:31.998Z,0.00
2018-01-17T04:45:29.994Z,0.00
2018-01-17T04:46:29.899Z,0.00
2018-01-17T04:47:29.827Z,0.00
2018-01-17T04:48:29.731Z,0.00
2018-01-17T04:49:29.653Z,0.00
2018-01-17T04:50:29.612Z,0.00
2018-01-17T04:51:29.475Z,0.00
2018-01-17T04:52:29.404Z,0.00
2018-01-17T04:53:29.327Z,0.00
2018-01-17T04:54:29.264Z,0.00
2018-01-17T04:55:29.156Z,0.00
2018-01-17T04:56:29.084Z,0.00
2018-01-17T04:57:28.976Z,0.00
2018-01-17T04:58:28.906Z,0.00
2018-01-17T04:59:28.899Z,0.00
2018-01-17T05:00:30.736Z,0.00
2018-01-17T05:01:28.684Z,0.00
2018-01-17T05:02:28.570Z,0.00
2018-01-17T05:03:28.493Z,0.00
2018-01-17T05:04:28.427Z,0.00
2018-01-17T05:05:28.338Z,0.00
2018-01-17T05:06:28.240Z,0.00
2018-01-17T05:07:28.162Z,0.00
2018-01-17T05:08:28.085Z,0.00
2018-01-17T05:09:28.034Z,0.00
2018-01-17T05:10:27.919Z,0.00
2018-01-17T05:11:27.864Z,0.00
2018-01-17T05:12:27.779Z,0.00
2018-01-17T05:13:28.448Z,0.00
2018-01-17T05:14:27.597Z,0.00
2018-01-17T05:15:27.501Z,0.00
2018-01-17T05:16:27.426Z,0.00
2018-01-17T05:17:27.362Z,0.00
2018-01-17T05:18:27.259Z,0.00
2018-01-17T05:19:29.190Z,0.00
2018-01-17T05:20:27.079Z,0.00
2018-01-17T05:21:27.044Z,0.00
2018-01-17T05:22:26.931Z,0.00
2018-01-17T05:23:26.848Z,0.00
2018-01-17T05:24:28.769Z,0.00
2018-01-17T05:27:12.897Z,0.00
2018-01-17T05:29:58.892Z,0.00
2018-01-17T05:30:58.803Z,0.00
2018-01-17T05:31:58.718Z,0.00
2018-01-17T05:32:58.656Z,0.00
2018-01-17T05:33:58.590Z,0.00
2018-01-17T05:36:23.911Z,0.00
2018-01-17T05:37:23.802Z,0.00
2018-01-17T05:38:23.742Z,0.00
2018-01-17T05:39:23.669Z,0.00
2018-01-17T05:40:23.580Z,0.00
2018-01-17T05:41:23.497Z,0.00
2018-01-17T05:42:23.421Z,0.00
2018-01-17T05:43:23.358Z,0.00
2018-01-17T05:44:23.248Z,0.00
2018-01-17T05:45:23.154Z,0.00
2018-01-17T05:46:23.078Z,0.00
2018-01-17T05:47:22.988Z,0.00
2018-01-17T05:48:22.912Z,0.00
2018-01-17T05:49:25.505Z,0.00
2018-01-17T05:50:22.740Z,0.00
2018-01-17T05:51:22.665Z,0.00
2018-01-17T05:52:22.646Z,0.00
2018-01-17T05:53:22.544Z,0.00
2018-01-17T05:54:22.430Z,0.00
2018-01-17T05:55:22.317Z,0.00
2018-01-17T05:56:22.251Z,0.00
2018-01-17T05:57:22.399Z,0.00
2018-01-17T05:58:22.094Z,0.00
2018-01-17T05:59:22.002Z,0.00
2018-01-17T06:00:21.924Z,0.00
2018-01-17T06:01:21.844Z,0.00
2018-01-17T06:02:21.765Z,0.00
2018-01-17T06:03:21.654Z,0.00
2018-01-17T06:04:21.578Z,0.00
2018-01-17T06:05:21.570Z,0.00
2018-01-17T06:06:21.429Z,0.00
2018-01-17T06:07:21.339Z,0.00
2018-01-17T06:08:21.267Z,0.00
2018-01-17T06:09:21.181Z,0.00
2018-01-17T06:10:21.532Z,0.00
2018-01-17T06:11:21.008Z,0.00
2018-01-17T06:12:20.921Z,0.00
2018-01-17T06:13:20.860Z,0.00
2018-01-17T06:14:20.771Z,0.00
2018-01-17T06:15:20.773Z,0.00
2018-01-17T06:16:29.052Z,0.00
2018-01-17T06:19:14.967Z,0.00
2018-01-17T06:20:23.593Z,0.00
2018-01-17T06:21:25.151Z,0.00
2018-01-17T06:22:23.694Z,0.00
2018-01-17T06:25:08.130Z,0.00
2018-01-17T06:26:16.259Z,0.00
2018-01-17T06:27:16.787Z,0.00
2018-01-17T06:28:07.859Z,0.00
2018-01-17T06:29:16.826Z,0.00
2018-01-17T06:30:16.368Z,0.00
2018-01-17T06:31:07.888Z,0.00
2018-01-17T06:32:07.532Z,0.00
2018-01-17T06:33:07.439Z,0.00
2018-01-17T06:35:49.301Z,0.00
2018-01-17T06:36:49.207Z,0.00
2018-01-17T06:40:15.262Z,0.00
2018-01-17T06:41:15.178Z,0.00
2018-01-17T06:42:15.101Z,0.00
2018-01-17T06:43:15.014Z,0.00
2018-01-17T06:44:14.915Z,0.00
2018-01-17T06:45:14.833Z,0.00
2018-01-17T06:46:14.777Z,0.00
2018-01-17T06:47:14.689Z,0.00
2018-01-17T06:48:14.583Z,0.00
2018-01-17T06:50:56.767Z,0.00
2018-01-17T06:51:56.688Z,0.00
2018-01-17T06:52:58.633Z,0.00
2018-01-17T07:19:18.255Z,28.00
2018-01-17T07:20:20.053Z,32.00
2018-01-17T07:21:18.002Z,28.00
2018-01-17T07:22:18.822Z,28.00
2018-01-17T07:25:11.269Z,48.00
2018-01-17T07:26:11.184Z,52.00
2018-01-17T07:27:15.096Z,56.00
2018-01-17T07:28:13.019Z,60.00
2018-01-17T07:29:13.840Z,68.00
2018-01-17T07:30:12.394Z,72.00
2018-01-17T07:31:10.789Z,84.00
2018-01-17T07:32:10.727Z,88.00
2018-01-17T07:33:10.614Z,88.00
2018-01-17T07:34:10.525Z,92.00
2018-01-17T07:35:10.506Z,96.00
2018-01-17T07:36:10.383Z,100.00
2018-01-17T07:38:52.261Z,136.00
2018-01-17T07:39:53.213Z,128.00
2018-01-17T07:40:52.141Z,136.00
2018-01-17T07:45:16.267Z,172.00
2018-01-17T07:47:58.300Z,184.00
2018-01-17T07:49:00.180Z,200.00
2018-01-17T07:49:58.118Z,200.00
2018-01-17T07:50:58.052Z,192.00
2018-01-17T07:51:57.934Z,228.00
2018-01-17T07:54:40.262Z,180.00
2018-01-17T07:55:40.316Z,188.00
2018-01-17T07:56:40.095Z,228.00
2018-01-17T07:57:40.030Z,256.00
2018-01-17T07:58:39.963Z,248.00
2018-01-17T07:59:39.859Z,300.00
2018-01-17T08:02:21.771Z,268.00
2018-01-17T08:06:45.780Z,248.00
2018-01-17T08:07:45.695Z,268.00
2018-01-17T08:08:45.619Z,244.00
2018-01-17T08:11:27.792Z,340.00
2018-01-17T08:12:27.801Z,332.00
2018-01-17T08:13:31.614Z,272.00
2018-01-17T08:14:27.518Z,228.00
2018-01-17T08:17:11.740Z,348.00
2018-01-17T08:19:51.784Z,452.00
2018-01-17T08:20:51.815Z,556.00
2018-01-17T08:21:52.389Z,528.00
2018-01-17T08:22:53.073Z,496.00
2018-01-17T08:23:51.840Z,556.00
2018-01-17T08:24:52.536Z,592.00
2018-01-17T08:25:51.341Z,572.00
2018-01-17T08:26:51.492Z,572.00
2018-01-17T08:27:51.328Z,580.00
2018-01-17T08:28:51.225Z,876.00
2018-01-17T08:31:33.301Z,1348.00
2018-01-17T08:34:21.565Z,1780.00
2018-01-17T08:35:23.662Z,1964.00
2018-01-17T08:36:19.161Z,1520.00
2018-01-17T08:37:19.400Z,1392.00
2018-01-17T08:39:27.628Z,1400.00
2018-01-17T08:39:28.923Z,1420.00
2018-01-17T08:40:30.332Z,1004.00
2018-01-17T09:02:39.010Z,1552.00
2018-01-17T09:03:38.931Z,1592.00
2018-01-17T09:04:38.841Z,1844.00
2018-01-17T09:10:57.267Z,3228.00
2018-01-17T09:13:39.306Z,2032.00
2018-01-17T09:16:21.276Z,2492.00
2018-01-17T09:17:21.242Z,3356.00
2018-01-17T09:22:37.292Z,1972.00
2018-01-17T09:23:37.205Z,1892.00
2018-01-17T09:24:37.141Z,1380.00
2018-01-17T09:29:09.327Z,1576.00
2018-01-17T09:30:09.204Z,1608.00
2018-01-17T09:31:09.167Z,1088.00
2018-01-17T09:33:51.314Z,1592.00
2018-01-17T09:34:55.207Z,1472.00
2018-01-17T09:35:51.159Z,1564.00
2018-01-17T09:36:51.032Z,1252.00
2018-01-17T09:37:51.061Z,1644.00
2018-01-17T09:40:36.835Z,2116.00
2018-01-17T09:41:36.694Z,1484.00
2018-01-17T09:44:18.824Z,2168.00
2018-01-17T09:47:04.782Z,2264.00
2018-01-17T09:48:04.708Z,2560.00
2018-01-17T09:50:48.390Z,2496.00
2018-01-17T09:51:46.701Z,3036.00
2018-01-17T09:54:32.814Z,3772.00
2018-01-17T09:55:34.689Z,3420.00
2018-01-17T09:56:32.619Z,10004.00
2018-01-17T09:57:34.560Z,2744.00
2018-01-17T09:58:32.503Z,6448.00
2018-01-17T09:59:32.386Z,5104.00
2018-01-17T10:00:32.317Z,5304.00
2018-01-17T10:01:32.191Z,4828.00
2018-01-17T10:05:56.292Z,1788.00
2018-01-17T10:10:35.844Z,3076.00
2018-01-17T10:11:39.691Z,3272.00
2018-01-17T10:12:35.621Z,2068.00
2018-01-17T10:13:35.527Z,2132.00
2018-01-17T10:14:35.445Z,2336.00
2018-01-17T10:15:35.415Z,2804.00
2018-01-17T10:16:35.302Z,3360.00
2018-01-17T10:21:03.275Z,5080.00
2018-01-17T10:22:03.220Z,2628.00
2018-01-17T10:24:45.293Z,3800.00
2018-01-17T10:25:45.250Z,1584.00
2018-01-17T10:26:45.138Z,868.00
2018-01-17T10:29:39.288Z,3928.00
2018-01-17T10:30:31.250Z,3676.00
2018-01-17T10:31:31.149Z,1920.00
2018-01-17T10:32:31.048Z,1292.00
2018-01-17T10:33:30.952Z,1164.00
2018-01-17T10:34:32.867Z,1956.00
2018-01-17T10:35:30.822Z,2656.00
2018-01-17T10:36:30.713Z,1292.00
2018-01-17T10:37:30.653Z,1492.00
2018-01-17T10:38:30.579Z,1060.00
2018-01-17T10:41:16.778Z,816.00
2018-01-17T10:42:12.710Z,916.00
2018-01-17T10:44:39.795Z,1404.00
2018-01-17T10:45:39.747Z,2064.00
2018-01-17T10:46:39.627Z,1808.00
2018-01-17T10:47:39.588Z,2864.00
2018-01-17T10:48:39.521Z,2164.00
2018-01-17T10:49:39.381Z,1260.00
2018-01-17T10:50:39.863Z,880.00
2018-01-17T10:53:21.379Z,1284.00
2018-01-17T10:54:22.195Z,1928.00
2018-01-17T10:58:45.915Z,1208.00
2018-01-17T10:59:54.931Z,1376.00
2018-01-17T11:00:54.964Z,1152.00
2018-01-17T11:01:52.996Z,1220.00
2018-01-17T11:08:00.457Z,1060.00
2018-01-17T11:09:08.626Z,1776.00
2018-01-17T11:10:00.273Z,2620.00
2018-01-17T11:11:00.205Z,1600.00
2018-01-17T11:12:00.127Z,1608.00
2018-01-17T11:13:04.007Z,2104.00
2018-01-17T11:13:59.975Z,2544.00
2018-01-17T11:14:59.862Z,2680.00
2018-01-17T11:15:59.779Z,2448.00
2018-01-17T11:18:45.988Z,4564.00
2018-01-17T11:19:45.905Z,3760.00
2018-01-17T11:20:45.807Z,2868.00
2018-01-17T11:23:27.978Z,1168.00
2018-01-17T11:24:27.903Z,1556.00
2018-01-17T11:25:28.114Z,1336.00
2018-01-17T11:26:29.744Z,1668.00
2018-01-17T11:27:27.666Z,1380.00
2018-01-17T11:28:28.623Z,1100.00
2018-01-17T11:34:40.571Z,1572.00
2018-01-17T11:35:38.434Z,1384.00
2018-01-17T11:36:38.315Z,1672.00
2018-01-17T11:37:38.246Z,1520.00
2018-01-17T11:38:38.138Z,1768.00
2018-01-17T11:39:42.060Z,2028.00
2018-01-17T11:40:37.978Z,2600.00
2018-01-17T11:41:37.996Z,1956.00
2018-01-17T11:42:37.817Z,1060.00
2018-01-17T11:43:37.741Z,1124.00
2018-01-17T11:44:37.668Z,1228.00
2018-01-17T11:47:19.481Z,808.00
2018-01-17T11:55:20.475Z,916.00
2018-01-17T11:56:20.408Z,868.00
2018-01-17T11:59:02.581Z,908.00
2018-01-17T12:01:44.505Z,856.00
2018-01-17T12:06:24.025Z,1344.00
2018-01-17T12:09:06.004Z,2092.00
2018-01-17T12:10:06.616Z,1944.00
2018-01-17T12:12:21.062Z,3500.00
2018-01-17T12:12:21.603Z,3340.00
2018-01-17T12:13:21.493Z,1640.00
2018-01-17T12:14:21.378Z,1176.00
2018-01-17T12:15:21.288Z,1464.00
2018-01-17T12:16:21.261Z,2336.00
2018-01-17T12:19:03.497Z,1248.00
2018-01-17T12:20:03.427Z,1616.00
2018-01-17T12:22:45.489Z,4312.00
2018-01-17T12:25:27.548Z,1004.00
2018-01-17T12:28:09.510Z,1156.00
2018-01-17T12:29:10.090Z,1488.00
2018-01-17T12:30:11.307Z,1520.00
2018-01-17T12:32:51.495Z,4040.00
2018-01-17T12:35:33.471Z,2988.00
2018-01-17T12:36:33.398Z,2008.00
2018-01-17T12:37:33.333Z,2156.00
2018-01-17T12:40:15.509Z,2112.00
2018-01-17T12:41:15.442Z,2188.00
2018-01-17T12:42:15.335Z,2728.00
2018-01-17T12:43:17.255Z,3524.00
2018-01-17T12:44:15.152Z,5392.00
2018-01-17T12:45:19.059Z,4664.00
2018-01-17T12:46:14.996Z,6196.00
2018-01-17T12:47:14.929Z,6640.00
2018-01-17T12:48:14.831Z,3568.00
2018-01-17T12:49:14.761Z,2912.00
2018-01-17T12:51:56.994Z,1864.00
2018-01-17T12:52:56.895Z,1764.00
2018-01-17T12:53:56.824Z,2916.00
2018-01-17T12:54:56.738Z,2404.00
2018-01-17T12:55:58.660Z,2640.00
2018-01-17T12:58:39.001Z,3692.00
2018-01-17T12:59:38.913Z,3508.00
2018-01-17T13:00:38.926Z,4544.00
2018-01-17T13:01:42.747Z,5664.00
2018-01-17T13:04:32.496Z,3328.00
2018-01-17T13:07:14.492Z,3068.00
2018-01-17T13:08:17.557Z,3764.00
2018-01-17T13:09:14.355Z,3028.00
2018-01-17T13:10:14.259Z,3296.00
2018-01-17T13:11:14.159Z,3580.00
2018-01-17T13:12:14.079Z,3016.00
2018-01-17T13:13:14.020Z,2980.00
2018-01-17T13:15:55.996Z,2200.00
2018-01-17T13:18:38.017Z,2136.00
2018-01-17T13:21:20.124Z,1704.00
2018-01-17T13:22:20.552Z,2024.00
2018-01-17T13:23:19.831Z,1620.00
2018-01-17T13:24:23.802Z,1664.00
2018-01-17T13:25:19.675Z,3044.00
2018-01-17T13:26:19.582Z,2684.00
2018-01-17T13:27:19.501Z,1696.00
2018-01-17T13:31:05.413Z,1708.00
2018-01-17T13:32:05.349Z,2020.00
2018-01-17T13:33:05.253Z,1556.00
2018-01-17T13:34:05.162Z,1392.00
2018-01-17T13:35:05.096Z,1096.00
2018-01-17T13:36:05.575Z,2016.00
2018-01-17T13:37:04.982Z,1060.00
2018-01-17T13:38:04.842Z,1244.00
2018-01-17T13:39:04.766Z,1148.00
2018-01-17T13:40:04.688Z,824.00
2018-01-17T13:41:04.598Z,884.00
2018-01-17T13:43:46.482Z,408.00
2018-01-17T13:44:47.054Z,148.00
2018-01-17T13:47:28.503Z,144.00
2018-01-17T13:48:28.417Z,164.00
2018-01-17T13:52:52.600Z,124.00
2018-01-17T13:53:52.405Z,100.00
2018-01-17T13:54:52.351Z,112.00
2018-01-17T13:57:36.123Z,260.00
2018-01-17T13:58:34.434Z,320.00
2018-01-17T13:59:38.346Z,416.00
2018-01-17T14:02:16.499Z,332.00
2018-01-17T14:03:16.437Z,592.00
2018-01-17T14:04:16.340Z,692.00
2018-01-17T14:05:16.373Z,632.00
2018-01-17T14:06:18.250Z,636.00
2018-01-17T14:08:58.090Z,200.00
2018-01-17T14:09:59.985Z,168.00
2018-01-17T14:10:59.815Z,184.00
2018-01-17T14:11:59.773Z,180.00
2018-01-17T14:14:40.066Z,112.00
2018-01-17T14:15:39.913Z,104.00
2018-01-17T14:16:39.847Z,116.00
2018-01-17T14:17:39.775Z,144.00
2018-01-17T14:18:39.688Z,180.00
2018-01-17T14:19:39.628Z,220.00
2018-01-17T14:20:39.521Z,272.00
2018-01-17T14:23:21.517Z,172.00
2018-01-17T14:24:21.442Z,100.00
2018-01-17T14:25:21.408Z,88.00
2018-01-17T14:26:21.249Z,116.00
2018-01-17T14:29:03.595Z,116.00
2018-01-17T14:30:03.403Z,188.00
2018-01-17T14:31:03.343Z,172.00
2018-01-17T14:32:03.309Z,256.00
2018-01-17T14:34:49.538Z,184.00
2018-01-17T14:40:58.134Z,260.00
2018-01-17T14:41:55.408Z,160.00
2018-01-17T14:42:55.366Z,252.00
2018-01-17T14:47:06.009Z,944.00
2018-01-17T14:48:05.913Z,816.00
2018-01-17T14:50:48.033Z,884.00
2018-01-17T14:53:33.983Z,952.00
2018-01-17T14:56:16.014Z,608.00
2018-01-17T14:58:58.010Z,448.00
2018-01-17T14:59:57.943Z,492.00
2018-01-17T15:02:44.045Z,228.00
2018-01-17T15:03:43.940Z,304.00
2018-01-17T15:04:43.852Z,184.00
2018-01-17T15:07:30.043Z,244.00
2018-01-17T15:10:12.017Z,356.00
2018-01-17T15:12:54.068Z,460.00
2018-01-17T15:13:53.966Z,400.00
2018-01-17T15:14:53.834Z,420.00
2018-01-17T15:15:53.763Z,360.00
2018-01-17T15:16:53.678Z,380.00
2018-01-17T15:19:36.006Z,368.00
2018-01-17T15:20:35.955Z,436.00
2018-01-17T15:21:35.828Z,512.00
2018-01-17T15:24:18.000Z,400.00
2018-01-17T15:25:17.907Z,380.00
2018-01-17T15:28:00.022Z,384.00
2018-01-17T15:28:59.941Z,356.00
2018-01-17T15:30:03.570Z,344.00
2018-01-17T15:30:59.779Z,344.00
2018-01-17T15:33:43.613Z,236.00
2018-01-17T15:34:50.656Z,204.00
2018-01-17T15:37:32.188Z,232.00
2018-01-17T15:43:58.634Z,88.00
2018-01-17T15:45:07.232Z,108.00
2018-01-17T15:47:54.672Z,176.00
2018-01-17T15:50:35.169Z,128.00
2018-01-17T15:51:35.094Z,128.00
2018-01-17T15:52:35.016Z,116.00
2018-01-17T15:53:34.950Z,112.00
2018-01-17T15:56:21.153Z,84.00
2018-01-17T15:59:03.190Z,72.00
2018-01-17T16:00:03.096Z,60.00
2018-01-17T16:01:03.051Z,44.00
2018-01-17T16:02:04.126Z,32.00
2018-01-17T16:03:02.911Z,24.00
2018-01-17T16:04:02.757Z,20.00
2018-01-17T16:05:02.795Z,16.00
2018-01-17T16:06:02.702Z,24.00
2018-01-17T16:08:48.673Z,24.00
2018-01-17T16:13:13.171Z,12.00
2018-01-17T16:14:13.101Z,12.00
2018-01-17T16:18:37.674Z,8.00
2018-01-17T16:19:37.604Z,8.00
2018-01-17T16:20:43.939Z,8.00
2018-01-17T16:21:37.434Z,8.00
2018-01-17T16:22:37.337Z,4.00
2018-01-17T16:23:37.267Z,0.00
2018-01-17T16:28:01.192Z,4.00
2018-01-17T16:29:01.094Z,0.00
2018-01-17T16:30:01.065Z,0.00
2018-01-17T16:34:33.196Z,0.00
2018-01-17T16:37:17.167Z,0.00
2018-01-17T16:38:15.090Z,0.00
2018-01-17T16:39:15.006Z,0.00
2018-01-17T16:40:14.920Z,0.00
2018-01-17T16:41:14.847Z,0.00
2018-01-17T16:42:14.774Z,0.00
2018-01-17T16:43:14.686Z,0.00
2018-01-17T16:44:14.595Z,0.00
2018-01-17T16:45:14.553Z,0.00
2018-01-17T16:46:14.463Z,0.00
2018-01-17T16:47:14.358Z,0.00
2018-01-17T16:48:14.265Z,0.00
2018-01-17T16:49:14.184Z,0.00
2018-01-17T16:50:14.115Z,0.00
2018-01-17T16:51:14.025Z,0.00
2018-01-17T16:52:13.947Z,0.00
2018-01-17T16:53:13.884Z,0.00
2018-01-17T16:55:55.667Z,0.00
2018-01-17T16:56:55.584Z,0.00
2018-01-17T16:57:57.512Z,0.00
2018-01-17T16:58:55.445Z,0.00
2018-01-17T16:59:55.390Z,0.00
2018-01-17T17:00:55.310Z,0.00
2018-01-17T17:01:57.173Z,0.00
2018-01-17T17:06:25.184Z,0.00
2018-01-17T17:10:49.180Z,0.00
2018-01-17T17:11:51.265Z,0.00
2018-01-17T17:12:56.989Z,0.00
2018-01-17T17:14:02.444Z,0.00
2018-01-17T17:15:50.380Z,0.00
2018-01-17T17:15:55.862Z,0.00
2018-01-17T17:17:51.121Z,0.00
2018-01-17T17:17:55.323Z,0.00
2018-01-17T17:18:50.324Z,0.00
2018-01-17T17:19:50.244Z,0.00
2018-01-17T17:20:51.286Z,0.00
2018-01-17T17:21:49.170Z,0.00
2018-01-17T17:22:52.336Z,0.00
2018-01-17T17:23:51.617Z,0.00
2018-01-17T17:24:50.198Z,0.00
2018-01-17T17:26:54.117Z,0.00
2018-01-17T17:26:58.647Z,0.00
2018-01-17T17:27:54.513Z,0.00
2018-01-17T17:30:36.700Z,0.00
2018-01-17T17:36:25.049Z,0.00
2018-01-17T17:38:07.674Z,0.00
2018-01-17T17:41:17.505Z,0.00
2018-01-17T17:41:49.619Z,0.00
2018-01-17T17:42:49.520Z,0.00
2018-01-17T18:06:36.995Z,0.00
2018-01-17T18:07:31.789Z,0.00
2018-01-17T18:08:29.150Z,0.00
2018-01-17T18:09:29.088Z,0.00
2018-01-17T18:10:41.814Z,0.00
2018-01-17T18:11:37.334Z,0.00
2018-01-17T18:14:19.767Z,0.00
2018-01-17T18:15:28.418Z,0.00
2018-01-17T18:16:19.653Z,0.00
2018-01-17T18:17:19.585Z,0.00
2018-01-17T18:18:19.919Z,0.00
2018-01-17T18:19:19.387Z,0.00
2018-01-17T18:20:19.359Z,0.00
2018-01-17T18:21:21.188Z,0.00
2018-01-17T18:22:19.900Z,0.00
2018-01-17T18:42:41.172Z,0.00
2018-01-17T18:43:41.102Z,0.00
2018-01-17T18:44:41.015Z,0.00
2018-01-17T18:47:23.315Z,0.00
2018-01-17T18:48:23.223Z,0.00
2018-01-17T18:49:23.144Z,0.00
2018-01-17T18:53:55.348Z,0.00
2018-01-17T18:54:55.223Z,0.00
2018-01-17T18:55:55.169Z,0.00
2018-01-17T18:56:55.085Z,0.00
2018-01-17T18:57:54.981Z,0.00
2018-01-17T19:00:36.824Z,0.00
2018-01-17T19:01:36.715Z,0.00
2018-01-17T19:02:36.646Z,0.00
2018-01-17T19:05:42.827Z,0.00
2018-01-17T19:06:42.721Z,0.00
2018-01-17T19:07:42.647Z,0.00
2018-01-17T19:08:44.628Z,0.00
2018-01-17T19:09:42.471Z,0.00
2018-01-17T19:10:42.434Z,0.00
2018-01-17T19:11:42.330Z,0.00
2018-01-17T19:12:42.232Z,0.00
2018-01-17T19:13:42.157Z,0.00